sensor_id;sensor_type;location;lat;lon;timestamp;temperature;humidity
9820;DHT22;4949;48.482;9.206;2023-09-30T00:04:15;18.70;82.80
9820;DHT22;4949;48.482;9.206;2023-09-30T00:09:16;18.60;83.10
9820;DHT22;4949;48.482;9.206;2023-09-30T00:14:16;18.60;83.50
9820;DHT22;4949;48.482;9.206;2023-09-30T00:19:17;18.40;83.80
9820;DHT22;4949;48.482;9.206;2023-09-30T00:24:18;18.40;84.20
9820;DHT22;4949;48.482;9.206;2023-09-30T00:29:20;18.30;84.70
9820;DHT22;4949;48.482;9.206;2023-09-30T00:34:26;18.20;85.00
9820;DHT22;4949;48.482;9.206;2023-09-30T00:39:29;18.10;85.20
9820;DHT22;4949;48.482;9.206;2023-09-30T00:44:33;18.00;85.60
9820;DHT22;4949;48.482;9.206;2023-09-30T00:49:37;17.90;85.70
9820;DHT22;4949;48.482;9.206;2023-09-30T00:54:39;17.90;85.70
9820;DHT22;4949;48.482;9.206;2023-09-30T00:59:40;17.80;86.00
9820;DHT22;4949;48.482;9.206;2023-09-30T01:04:46;17.80;86.20
9820;DHT22;4949;48.482;9.206;2023-09-30T01:09:50;17.70;86.20
9820;DHT22;4949;48.482;9.206;2023-09-30T01:14:57;17.70;86.40
9820;DHT22;4949;48.482;9.206;2023-09-30T01:20:00;17.60;86.50
9820;DHT22;4949;48.482;9.206;2023-09-30T01:25:01;17.50;86.70
9820;DHT22;4949;48.482;9.206;2023-09-30T01:30:05;17.50;87.00
9820;DHT22;4949;48.482;9.206;2023-09-30T01:35:07;17.40;87.10
9820;DHT22;4949;48.482;9.206;2023-09-30T01:40:08;17.30;87.20
9820;DHT22;4949;48.482;9.206;2023-09-30T01:45:15;17.00;87.30
9820;DHT22;4949;48.482;9.206;2023-09-30T01:50:15;17.20;87.60
9820;DHT22;4949;48.482;9.206;2023-09-30T01:55:17;17.10;87.90
9820;DHT22;4949;48.482;9.206;2023-09-30T02:00:21;17.10;88.20
9820;DHT22;4949;48.482;9.206;2023-09-30T02:05:28;17.00;88.30
9820;DHT22;4949;48.482;9.206;2023-09-30T02:10:29;17.00;88.70
9820;DHT22;4949;48.482;9.206;2023-09-30T02:15:30;16.90;88.80
9820;DHT22;4949;48.482;9.206;2023-09-30T02:20:31;16.90;89.10
9820;DHT22;4949;48.482;9.206;2023-09-30T02:25:32;16.80;89.40
9820;DHT22;4949;48.482;9.206;2023-09-30T02:30:33;16.80;89.50
9820;DHT22;4949;48.482;9.206;2023-09-30T02:35:34;16.90;89.90
9820;DHT22;4949;48.482;9.206;2023-09-30T02:40:35;16.90;89.90
9820;DHT22;4949;48.482;9.206;2023-09-30T02:45:35;16.90;89.80
9820;DHT22;4949;48.482;9.206;2023-09-30T02:50:36;16.80;90.00
9820;DHT22;4949;48.482;9.206;2023-09-30T02:55:37;16.80;90.20
9820;DHT22;4949;48.482;9.206;2023-09-30T03:00:38;16.80;90.20
9820;DHT22;4949;48.482;9.206;2023-09-30T03:05:39;16.80;90.20
9820;DHT22;4949;48.482;9.206;2023-09-30T03:10:39;16.80;90.50
9820;DHT22;4949;48.482;9.206;2023-09-30T03:15:43;16.80;90.50
9820;DHT22;4949;48.482;9.206;2023-09-30T03:20:44;16.80;90.50
9820;DHT22;4949;48.482;9.206;2023-09-30T03:25:44;16.80;90.40
9820;DHT22;4949;48.482;9.206;2023-09-30T03:30:45;16.80;90.50
9820;DHT22;4949;48.482;9.206;2023-09-30T03:35:49;16.80;90.70
9820;DHT22;4949;48.482;9.206;2023-09-30T03:40:52;16.70;90.80
9820;DHT22;4949;48.482;9.206;2023-09-30T03:45:55;16.70;90.90
9820;DHT22;4949;48.482;9.206;2023-09-30T03:50:57;16.60;91.00
9820;DHT22;4949;48.482;9.206;2023-09-30T03:55:58;16.70;91.10
9820;DHT22;4949;48.482;9.206;2023-09-30T04:00:59;16.60;91.30
9820;DHT22;4949;48.482;9.206;2023-09-30T04:06:04;16.50;91.20
9820;DHT22;4949;48.482;9.206;2023-09-30T04:11:07;16.60;91.10
9820;DHT22;4949;48.482;9.206;2023-09-30T04:16:08;16.50;91.20
9820;DHT22;4949;48.482;9.206;2023-09-30T04:21:08;16.60;91.40
9820;DHT22;4949;48.482;9.206;2023-09-30T04:26:09;16.40;91.30
9820;DHT22;4949;48.482;9.206;2023-09-30T04:31:10;16.40;91.50
9820;DHT22;4949;48.482;9.206;2023-09-30T04:36:12;16.40;91.60
9820;DHT22;4949;48.482;9.206;2023-09-30T04:41:15;16.40;91.70
9820;DHT22;4949;48.482;9.206;2023-09-30T04:46:19;16.40;91.80
9820;DHT22;4949;48.482;9.206;2023-09-30T04:51:24;16.40;91.90
9820;DHT22;4949;48.482;9.206;2023-09-30T04:56:26;16.30;92.00
9820;DHT22;4949;48.482;9.206;2023-09-30T05:01:27;16.30;92.00
9820;DHT22;4949;48.482;9.206;2023-09-30T05:06:28;16.30;92.10
9820;DHT22;4949;48.482;9.206;2023-09-30T05:11:33;16.30;92.10
9820;DHT22;4949;48.482;9.206;2023-09-30T05:16:35;16.30;92.20
9820;DHT22;4949;48.482;9.206;2023-09-30T05:21:37;16.30;92.20
9820;DHT22;4949;48.482;9.206;2023-09-30T05:26:37;16.00;92.00
9820;DHT22;4949;48.482;9.206;2023-09-30T05:31:38;16.30;92.20
9820;DHT22;4949;48.482;9.206;2023-09-30T05:36:39;16.30;92.30
9820;DHT22;4949;48.482;9.206;2023-09-30T05:41:40;16.20;92.40
9820;DHT22;4949;48.482;9.206;2023-09-30T05:46:42;16.20;92.40
9820;DHT22;4949;48.482;9.206;2023-09-30T05:51:43;16.20;92.50
9820;DHT22;4949;48.482;9.206;2023-09-30T05:56:48;16.30;92.60
9820;DHT22;4949;48.482;9.206;2023-09-30T06:01:49;16.30;92.60
9820;DHT22;4949;48.482;9.206;2023-09-30T06:06:51;16.30;92.60
9820;DHT22;4949;48.482;9.206;2023-09-30T06:11:52;16.30;92.50
9820;DHT22;4949;48.482;9.206;2023-09-30T06:16:53;16.30;92.40
9820;DHT22;4949;48.482;9.206;2023-09-30T06:21:54;16.30;92.50
9820;DHT22;4949;48.482;9.206;2023-09-30T06:26:57;16.30;92.40
9820;DHT22;4949;48.482;9.206;2023-09-30T06:31:57;16.60;92.40
9820;DHT22;4949;48.482;9.206;2023-09-30T06:36:58;16.40;92.30
9820;DHT22;4949;48.482;9.206;2023-09-30T06:41:59;16.50;92.10
9820;DHT22;4949;48.482;9.206;2023-09-30T06:46:59;16.70;92.10
9820;DHT22;4949;48.482;9.206;2023-09-30T06:52:00;16.60;91.90
9820;DHT22;4949;48.482;9.206;2023-09-30T06:57:03;16.60;92.20
9820;DHT22;4949;48.482;9.206;2023-09-30T07:02:05;16.70;92.10
9820;DHT22;4949;48.482;9.206;2023-09-30T07:07:08;16.80;91.90
9820;DHT22;4949;48.482;9.206;2023-09-30T07:12:10;16.90;91.50
9820;DHT22;4949;48.482;9.206;2023-09-30T07:17:11;16.90;91.30
9820;DHT22;4949;48.482;9.206;2023-09-30T07:22:12;17.00;91.30
9820;DHT22;4949;48.482;9.206;2023-09-30T07:27:17;17.00;91.20
9820;DHT22;4949;48.482;9.206;2023-09-30T07:32:18;17.10;91.00
9820;DHT22;4949;48.482;9.206;2023-09-30T07:37:18;17.10;90.90
9820;DHT22;4949;48.482;9.206;2023-09-30T07:42:23;17.20;90.90
9820;DHT22;4949;48.482;9.206;2023-09-30T07:47:26;17.30;90.80
9820;DHT22;4949;48.482;9.206;2023-09-30T07:52:27;17.40;90.40
9820;DHT22;4949;48.482;9.206;2023-09-30T07:57:28;17.40;90.30
9820;DHT22;4949;48.482;9.206;2023-09-30T08:02:28;17.40;88.90
9820;DHT22;4949;48.482;9.206;2023-09-30T08:07:36;17.40;89.10
9820;DHT22;4949;48.482;9.206;2023-09-30T08:12:40;17.50;88.80
9820;DHT22;4949;48.482;9.206;2023-09-30T08:17:41;17.60;88.90
9820;DHT22;4949;48.482;9.206;2023-09-30T08:22:42;17.30;88.50
9820;DHT22;4949;48.482;9.206;2023-09-30T08:27:43;17.70;88.80
9820;DHT22;4949;48.482;9.206;2023-09-30T08:32:45;17.70;88.70
9820;DHT22;4949;48.482;9.206;2023-09-30T08:37:51;17.80;88.20
9820;DHT22;4949;48.482;9.206;2023-09-30T08:42:52;18.00;87.80
9820;DHT22;4949;48.482;9.206;2023-09-30T08:47:54;18.10;86.30
9820;DHT22;4949;48.482;9.206;2023-09-30T08:52:55;18.10;86.10
9820;DHT22;4949;48.482;9.206;2023-09-30T08:57:57;18.30;86.10
9820;DHT22;4949;48.482;9.206;2023-09-30T09:02:58;18.40;85.90
9820;DHT22;4949;48.482;9.206;2023-09-30T09:07:59;18.60;84.60
9820;DHT22;4949;48.482;9.206;2023-09-30T09:13:04;18.70;84.10
9820;DHT22;4949;48.482;9.206;2023-09-30T09:18:05;18.80;83.90
9820;DHT22;4949;48.482;9.206;2023-09-30T09:23:08;18.80;83.20
9820;DHT22;4949;48.482;9.206;2023-09-30T09:28:09;18.80;82.30
9820;DHT22;4949;48.482;9.206;2023-09-30T09:33:11;18.80;82.50
9820;DHT22;4949;48.482;9.206;2023-09-30T09:38:12;18.80;82.70
9820;DHT22;4949;48.482;9.206;2023-09-30T09:43:13;18.90;82.20
9820;DHT22;4949;48.482;9.206;2023-09-30T09:48:17;19.00;81.20
9820;DHT22;4949;48.482;9.206;2023-09-30T09:53:18;19.00;81.00
9820;DHT22;4949;48.482;9.206;2023-09-30T09:58:21;19.20;80.30
9820;DHT22;4949;48.482;9.206;2023-09-30T10:03:25;19.40;79.80
9820;DHT22;4949;48.482;9.206;2023-09-30T10:08:36;19.50;79.30
9820;DHT22;4949;48.482;9.206;2023-09-30T10:13:57;19.60;78.10
9820;DHT22;4949;48.482;9.206;2023-09-30T10:29:41;20.20;75.00
9820;DHT22;4949;48.482;9.206;2023-09-30T10:34:49;20.50;74.90
9820;DHT22;4949;48.482;9.206;2023-09-30T10:39:57;20.70;74.10
9820;DHT22;4949;48.482;9.206;2023-09-30T10:45:04;20.80;72.70
9820;DHT22;4949;48.482;9.206;2023-09-30T10:56:00;21.40;69.80
9820;DHT22;4949;48.482;9.206;2023-09-30T11:01:05;21.80;68.30
9820;DHT22;4949;48.482;9.206;2023-09-30T11:06:14;22.10;66.90
9820;DHT22;4949;48.482;9.206;2023-09-30T11:11:32;22.50;63.60
9820;DHT22;4949;48.482;9.206;2023-09-30T11:16:42;22.50;63.00
9820;DHT22;4949;48.482;9.206;2023-09-30T11:21:44;22.90;62.40
9820;DHT22;4949;48.482;9.206;2023-09-30T11:26:45;23.00;60.20
9820;DHT22;4949;48.482;9.206;2023-09-30T11:31:47;23.60;59.90
9820;DHT22;4949;48.482;9.206;2023-09-30T11:36:55;23.50;55.40
9820;DHT22;4949;48.482;9.206;2023-09-30T11:41:59;23.50;54.20
9820;DHT22;4949;48.482;9.206;2023-09-30T11:47:04;23.70;53.30
9820;DHT22;4949;48.482;9.206;2023-09-30T11:52:10;23.70;51.60
9820;DHT22;4949;48.482;9.206;2023-09-30T11:57:16;24.00;53.70
9820;DHT22;4949;48.482;9.206;2023-09-30T12:02:17;23.90;52.70
9820;DHT22;4949;48.482;9.206;2023-09-30T12:07:18;24.20;52.00
9820;DHT22;4949;48.482;9.206;2023-09-30T12:12:18;24.20;51.10
9820;DHT22;4949;48.482;9.206;2023-09-30T12:17:22;24.30;51.50
9820;DHT22;4949;48.482;9.206;2023-09-30T12:22:25;23.90;50.10
9820;DHT22;4949;48.482;9.206;2023-09-30T12:27:26;23.40;51.40
9820;DHT22;4949;48.482;9.206;2023-09-30T12:32:26;23.30;54.30
9820;DHT22;4949;48.482;9.206;2023-09-30T12:37:27;23.70;54.00
9820;DHT22;4949;48.482;9.206;2023-09-30T12:42:29;23.80;53.30
9820;DHT22;4949;48.482;9.206;2023-09-30T12:47:30;24.10;53.10
9820;DHT22;4949;48.482;9.206;2023-09-30T12:52:31;24.40;51.20
9820;DHT22;4949;48.482;9.206;2023-09-30T12:57:33;24.50;51.50
9820;DHT22;4949;48.482;9.206;2023-09-30T13:02:33;24.80;53.80
9820;DHT22;4949;48.482;9.206;2023-09-30T13:07:36;25.00;56.60
9820;DHT22;4949;48.482;9.206;2023-09-30T13:12:38;25.00;51.20
9820;DHT22;4949;48.482;9.206;2023-09-30T13:17:39;24.90;54.40
9820;DHT22;4949;48.482;9.206;2023-09-30T13:22:44;24.90;53.50
9820;DHT22;4949;48.482;9.206;2023-09-30T13:27:46;24.80;53.80
9820;DHT22;4949;48.482;9.206;2023-09-30T13:32:50;24.80;50.90
9820;DHT22;4949;48.482;9.206;2023-09-30T13:37:50;24.60;50.70
9820;DHT22;4949;48.482;9.206;2023-09-30T13:42:53;24.80;50.00
9820;DHT22;4949;48.482;9.206;2023-09-30T13:47:54;24.90;49.80
9820;DHT22;4949;48.482;9.206;2023-09-30T13:52:56;25.10;52.00
9820;DHT22;4949;48.482;9.206;2023-09-30T13:57:57;25.30;49.70
9820;DHT22;4949;48.482;9.206;2023-09-30T14:03:00;25.20;49.80
9820;DHT22;4949;48.482;9.206;2023-09-30T14:08:00;25.60;48.70
9820;DHT22;4949;48.482;9.206;2023-09-30T14:13:06;25.90;47.70
9820;DHT22;4949;48.482;9.206;2023-09-30T14:18:10;26.00;48.90
9820;DHT22;4949;48.482;9.206;2023-09-30T14:23:10;26.10;47.50
9820;DHT22;4949;48.482;9.206;2023-09-30T14:28:11;26.00;47.20
9820;DHT22;4949;48.482;9.206;2023-09-30T14:33:12;25.90;47.90
9820;DHT22;4949;48.482;9.206;2023-09-30T14:38:15;25.90;49.30
9820;DHT22;4949;48.482;9.206;2023-09-30T14:43:16;25.90;46.80
9820;DHT22;4949;48.482;9.206;2023-09-30T14:48:19;25.80;51.60
9820;DHT22;4949;48.482;9.206;2023-09-30T14:53:20;25.70;47.70
9820;DHT22;4949;48.482;9.206;2023-09-30T14:58:23;25.80;47.90
9820;DHT22;4949;48.482;9.206;2023-09-30T15:03:24;25.80;48.10
9820;DHT22;4949;48.482;9.206;2023-09-30T15:08:24;25.80;45.50
9820;DHT22;4949;48.482;9.206;2023-09-30T15:13:28;25.80;49.10
9820;DHT22;4949;48.482;9.206;2023-09-30T15:18:29;25.70;49.40
9820;DHT22;4949;48.482;9.206;2023-09-30T15:23:30;25.70;47.60
9820;DHT22;4949;48.482;9.206;2023-09-30T15:28:36;25.60;47.40
9820;DHT22;4949;48.482;9.206;2023-09-30T15:33:41;25.60;49.40
9820;DHT22;4949;48.482;9.206;2023-09-30T15:38:42;25.70;49.20
9820;DHT22;4949;48.482;9.206;2023-09-30T15:43:43;25.60;49.50
9820;DHT22;4949;48.482;9.206;2023-09-30T15:48:44;25.60;49.80
9820;DHT22;4949;48.482;9.206;2023-09-30T15:53:45;25.50;49.40
9820;DHT22;4949;48.482;9.206;2023-09-30T15:58:45;25.50;49.70
9820;DHT22;4949;48.482;9.206;2023-09-30T16:03:46;25.20;50.10
9820;DHT22;4949;48.482;9.206;2023-09-30T16:08:47;25.10;50.00
9820;DHT22;4949;48.482;9.206;2023-09-30T16:13:50;25.00;50.30
9820;DHT22;4949;48.482;9.206;2023-09-30T16:18:53;24.70;51.00
9820;DHT22;4949;48.482;9.206;2023-09-30T16:23:56;24.40;51.60
9820;DHT22;4949;48.482;9.206;2023-09-30T16:28:59;24.30;52.00
9820;DHT22;4949;48.482;9.206;2023-09-30T16:34:00;24.10;52.60
9820;DHT22;4949;48.482;9.206;2023-09-30T16:39:01;23.80;53.40
9820;DHT22;4949;48.482;9.206;2023-09-30T16:44:06;23.60;53.60
9820;DHT22;4949;48.482;9.206;2023-09-30T16:49:07;23.30;54.40
9820;DHT22;4949;48.482;9.206;2023-09-30T16:54:11;23.10;54.90
9820;DHT22;4949;48.482;9.206;2023-09-30T16:59:11;22.90;55.30
9820;DHT22;4949;48.482;9.206;2023-09-30T17:04:14;22.70;56.20
9820;DHT22;4949;48.482;9.206;2023-09-30T17:09:17;22.50;56.60
9820;DHT22;4949;48.482;9.206;2023-09-30T17:14:20;22.30;57.00
9820;DHT22;4949;48.482;9.206;2023-09-30T17:19:21;22.10;57.60
9820;DHT22;4949;48.482;9.206;2023-09-30T17:24:21;21.90;58.60
9820;DHT22;4949;48.482;9.206;2023-09-30T17:29:22;21.70;59.20
9820;DHT22;4949;48.482;9.206;2023-09-30T17:34:23;21.50;60.00
9820;DHT22;4949;48.482;9.206;2023-09-30T17:39:26;21.40;60.40
9820;DHT22;4949;48.482;9.206;2023-09-30T17:44:27;21.20;61.30
9820;DHT22;4949;48.482;9.206;2023-09-30T17:49:28;21.00;62.30
9820;DHT22;4949;48.482;9.206;2023-09-30T17:54:29;20.90;63.00
9820;DHT22;4949;48.482;9.206;2023-09-30T17:59:32;20.70;64.10
9820;DHT22;4949;48.482;9.206;2023-09-30T18:04:33;20.70;63.80
9820;DHT22;4949;48.482;9.206;2023-09-30T18:09:41;20.50;64.80
9820;DHT22;4949;48.482;9.206;2023-09-30T18:14:41;20.30;65.50
9820;DHT22;4949;48.482;9.206;2023-09-30T18:19:43;20.20;66.50
9820;DHT22;4949;48.482;9.206;2023-09-30T18:24:43;20.00;66.90
9820;DHT22;4949;48.482;9.206;2023-09-30T18:29:44;19.80;67.70
9820;DHT22;4949;48.482;9.206;2023-09-30T18:34:46;19.70;68.80
9820;DHT22;4949;48.482;9.206;2023-09-30T18:39:46;19.50;69.90
9820;DHT22;4949;48.482;9.206;2023-09-30T18:44:47;19.30;70.90
9820;DHT22;4949;48.482;9.206;2023-09-30T18:49:48;19.10;72.00
9820;DHT22;4949;48.482;9.206;2023-09-30T18:54:51;19.00;72.80
9820;DHT22;4949;48.482;9.206;2023-09-30T18:59:52;18.80;73.20
9820;DHT22;4949;48.482;9.206;2023-09-30T19:04:54;18.70;74.00
9820;DHT22;4949;48.482;9.206;2023-09-30T19:09:55;18.60;74.60
9820;DHT22;4949;48.482;9.206;2023-09-30T19:14:56;18.50;74.30
9820;DHT22;4949;48.482;9.206;2023-09-30T19:19:57;18.40;74.20
9820;DHT22;4949;48.482;9.206;2023-09-30T19:24:58;18.30;75.40
9820;DHT22;4949;48.482;9.206;2023-09-30T19:29:59;18.10;76.10
9820;DHT22;4949;48.482;9.206;2023-09-30T19:35:01;18.00;76.00
9820;DHT22;4949;48.482;9.206;2023-09-30T19:40:03;17.90;77.40
9820;DHT22;4949;48.482;9.206;2023-09-30T19:45:07;17.70;77.60
9820;DHT22;4949;48.482;9.206;2023-09-30T19:50:08;17.60;78.20
9820;DHT22;4949;48.482;9.206;2023-09-30T19:55:09;17.50;78.90
9820;DHT22;4949;48.482;9.206;2023-09-30T20:00:10;17.40;79.30
9820;DHT22;4949;48.482;9.206;2023-09-30T20:05:18;17.30;79.10
9820;DHT22;4949;48.482;9.206;2023-09-30T20:10:18;17.30;79.80
9820;DHT22;4949;48.482;9.206;2023-09-30T20:15:19;17.20;80.10
9820;DHT22;4949;48.482;9.206;2023-09-30T20:20:22;17.20;79.80
9820;DHT22;4949;48.482;9.206;2023-09-30T20:25:25;17.10;80.40
9820;DHT22;4949;48.482;9.206;2023-09-30T20:30:25;17.10;80.50
9820;DHT22;4949;48.482;9.206;2023-09-30T20:35:26;17.00;80.60
9820;DHT22;4949;48.482;9.206;2023-09-30T20:40:27;16.90;81.00
9820;DHT22;4949;48.482;9.206;2023-09-30T20:45:32;16.90;81.20
9820;DHT22;4949;48.482;9.206;2023-09-30T20:50:33;16.80;81.80
9820;DHT22;4949;48.482;9.206;2023-09-30T20:55:36;16.60;82.20
9820;DHT22;4949;48.482;9.206;2023-09-30T21:00:37;16.60;82.40
9820;DHT22;4949;48.482;9.206;2023-09-30T21:05:38;16.50;82.70
9820;DHT22;4949;48.482;9.206;2023-09-30T21:10:39;16.50;83.00
9820;DHT22;4949;48.482;9.206;2023-09-30T21:15:40;16.40;82.70
9820;DHT22;4949;48.482;9.206;2023-09-30T21:20:42;16.40;82.50
9820;DHT22;4949;48.482;9.206;2023-09-30T21:25:43;16.30;81.90
9820;DHT22;4949;48.482;9.206;2023-09-30T21:30:45;16.30;81.90
9820;DHT22;4949;48.482;9.206;2023-09-30T21:35:54;16.20;82.30
9820;DHT22;4949;48.482;9.206;2023-09-30T21:40:56;16.20;82.10
9820;DHT22;4949;48.482;9.206;2023-09-30T21:45:57;16.20;81.90
9820;DHT22;4949;48.482;9.206;2023-09-30T21:50:57;16.20;81.70
9820;DHT22;4949;48.482;9.206;2023-09-30T21:56:00;16.10;81.90
9820;DHT22;4949;48.482;9.206;2023-09-30T22:01:02;16.00;82.20
9820;DHT22;4949;48.482;9.206;2023-09-30T22:06:08;16.00;82.40
9820;DHT22;4949;48.482;9.206;2023-09-30T22:11:09;15.90;82.80
9820;DHT22;4949;48.482;9.206;2023-09-30T22:16:10;15.90;83.30
9820;DHT22;4949;48.482;9.206;2023-09-30T22:21:11;15.80;83.60
9820;DHT22;4949;48.482;9.206;2023-09-30T22:26:12;15.70;83.80
9820;DHT22;4949;48.482;9.206;2023-09-30T22:31:15;15.70;84.10
9820;DHT22;4949;48.482;9.206;2023-09-30T22:36:16;15.50;84.20
9820;DHT22;4949;48.482;9.206;2023-09-30T22:41:19;15.70;84.50
9820;DHT22;4949;48.482;9.206;2023-09-30T22:46:20;15.40;84.30
9820;DHT22;4949;48.482;9.206;2023-09-30T22:51:23;15.40;84.40
9820;DHT22;4949;48.482;9.206;2023-09-30T22:56:27;15.30;85.30
9820;DHT22;4949;48.482;9.206;2023-09-30T23:01:28;15.20;85.80
9820;DHT22;4949;48.482;9.206;2023-09-30T23:06:31;15.20;86.40
9820;DHT22;4949;48.482;9.206;2023-09-30T23:11:33;15.10;86.80
9820;DHT22;4949;48.482;9.206;2023-09-30T23:16:34;15.00;87.20
9820;DHT22;4949;48.482;9.206;2023-09-30T23:21:35;14.90;87.20
9820;DHT22;4949;48.482;9.206;2023-09-30T23:26:38;14.90;87.40
9820;DHT22;4949;48.482;9.206;2023-09-30T23:31:39;14.80;87.60
9820;DHT22;4949;48.482;9.206;2023-09-30T23:36:43;14.70;87.70
9820;DHT22;4949;48.482;9.206;2023-09-30T23:41:49;14.70;87.80
9820;DHT22;4949;48.482;9.206;2023-09-30T23:46:50;14.60;87.80
9820;DHT22;4949;48.482;9.206;2023-09-30T23:51:53;14.60;88.20
9820;DHT22;4949;48.482;9.206;2023-09-30T23:56:54;14.50;88.40
